Time;durP1;ratioP1;P1;durP2;ratioP2;P2;SDS_P1;SDS_P2;PMS_P1;PMS_P2;Temp;Humidity;BMP_temperature;BMP_pressure;BME280_temperature;BME280_humidity;BME280_pressure;Samples;Min_cycle;Max_cycle;Signal;HPM_P1;HPM_P2
2022/09/22 00:01:06;;;;;;;2.35;1.77;;;;;;;22.64;36.14;100856.77;1703804;84;21562;-78
2022/09/22 00:03:36;;;;;;;2.90;2.10;;;;;;;22.64;36.14;100855.95;1680411;84;21045;-79
2022/09/22 00:06:06;;;;;;;2.98;1.57;;;;;;;22.63;36.14;100853.75;1664854;85;21109;-78
2022/09/22 00:08:34;;;;;;;3.98;2.08;;;;;;;22.64;36.15;100855.95;1664924;85;21642;-79
2022/09/22 00:11:19;;;;;;;3.65;2.00;;;;;;;22.63;36.15;100855.70;1664767;85;21045;-79
2022/09/22 00:13:57;;;;;;;3.22;1.90;;;;;;;22.63;36.18;100852.93;1682862;85;21594;-79
2022/09/22 00:16:27;;;;;;;3.22;1.82;;;;;;;22.63;36.17;100851.55;1672435;83;21025;-78
2022/09/22 00:18:54;;;;;;;3.20;1.80;;;;;;;22.62;36.15;100852.68;1684547;85;21499;-79
2022/09/22 00:21:21;;;;;;;3.40;1.70;;;;;;;22.61;36.18;100853.28;1676587;83;21107;-79
2022/09/22 00:23:48;;;;;;;3.17;1.70;;;;;;;22.62;36.16;100847.13;1678558;84;21051;-79
2022/09/22 00:26:20;;;;;;;3.33;1.87;;;;;;;22.61;36.20;100845.53;1686210;83;21326;-78
2022/09/22 00:28:47;;;;;;;3.08;1.70;;;;;;;22.61;36.20;100847.73;1687030;84;21083;-79
2022/09/22 00:31:17;;;;;;;2.37;1.87;;;;;;;22.61;36.21;100845.53;1686281;83;21075;-78
2022/09/22 00:33:45;;;;;;;2.33;1.62;;;;;;;22.60;36.22;100841.13;1683888;84;21127;-79
2022/09/22 00:36:11;;;;;;;2.72;1.92;;;;;;;22.61;36.22;100840.80;1669056;85;21354;-79
2022/09/22 00:38:38;;;;;;;3.25;1.95;;;;;;;22.61;36.23;100848.30;1701385;83;21128;-78
2022/09/22 00:41:07;;;;;;;4.22;1.65;;;;;;;22.60;36.25;100846.67;1702819;84;21600;-79
2022/09/22 00:43:35;;;;;;;2.30;1.62;;;;;;;22.59;36.24;100845.84;1704056;83;21060;-79
2022/09/22 00:46:15;;;;;;;3.33;1.80;;;;;;;22.61;36.27;100844.14;1683777;84;21483;-78
2022/09/22 00:48:47;;;;;;;2.27;1.57;;;;;;;22.59;36.27;100837.53;1703221;83;21047;-78
2022/09/22 00:51:15;;;;;;;2.58;1.90;;;;;;;22.60;36.26;100836.96;1703735;84;21115;-79
2022/09/22 00:53:43;;;;;;;2.83;1.60;;;;;;;22.60;36.26;100841.13;1703343;83;22176;-78
2022/09/22 00:56:14;;;;;;;2.87;1.80;;;;;;;22.61;36.26;100842.76;1703156;83;21376;-79
2022/09/22 00:58:49;;;;;;;2.40;1.80;;;;;;;22.59;36.27;100847.23;1702771;83;21068;-79
2022/09/22 01:01:15;;;;;;;2.52;1.57;;;;;;;22.59;36.28;100847.80;1702423;83;21064;-79
2022/09/22 01:03:42;;;;;;;3.45;1.50;;;;;;;22.57;36.30;100838.45;1703101;84;21267;-79
2022/09/22 01:06:12;;;;;;;4.00;1.67;;;;;;;22.59;36.31;100850.01;1703216;83;22608;-78
2022/09/22 01:08:38;;;;;;;2.95;1.80;;;;;;;22.58;36.30;100841.44;1702870;84;21636;-79
2022/09/22 01:11:05;;;;;;;2.20;1.75;;;;;;;22.59;36.31;100843.08;1702917;83;21092;-78
2022/09/22 01:13:57;;;;;;;3.95;1.77;;;;;;;22.59;36.33;100843.08;1703313;84;21079;-78
2022/09/22 01:16:38;;;;;;;2.95;1.57;;;;;;;22.59;36.33;100840.87;1702880;83;22143;-78
2022/09/22 01:19:25;;;;;;;;;;;;;;;22.59;36.33;100847.23;1705683;83;21088;-79
2022/09/22 01:22:48;;;;;;;2.75;1.80;;;;;;;22.56;36.34;100840.97;1702940;83;20236;-78
2022/09/22 01:25:41;;;;;;;4.78;1.67;;;;;;;22.56;36.35;100843.74;1703257;83;21075;-78
2022/09/22 01:28:59;;;;;;;3.27;1.60;;;;;;;22.54;36.32;100841.86;1704341;84;21206;-79
2022/09/22 01:31:49;;;;;;;2.77;2.10;;;;;;;22.54;36.32;100841.04;1705378;83;21127;-79
2022/09/22 01:34:34;;;;;;;3.08;1.57;;;;;;;22.53;36.32;100842.20;1671450;83;21051;-78
2022/09/22 01:37:45;;;;;;;2.70;1.67;;;;;;;22.53;36.35;100842.99;1716662;81;21596;-79
2022/09/22 01:40:21;;;;;;;3.67;1.80;;;;;;;22.53;36.36;100842.99;1621120;86;21113;-78
2022/09/22 01:42:55;;;;;;;2.95;1.52;;;;;;;22.53;36.37;100844.38;1652102;86;21198;-78
2022/09/22 01:45:25;;;;;;;3.05;1.70;;;;;;;22.53;36.38;100846.37;1708867;81;21269;-78
2022/09/22 01:47:58;;;;;;;3.35;1.55;;;;;;;22.54;36.39;100850.74;1741743;82;21075;-78
2022/09/22 01:50:29;;;;;;;3.10;1.75;;;;;;;22.53;36.40;100845.77;1712896;82;21119;-79
2022/09/22 01:52:58;;;;;;;2.65;1.70;;;;;;;22.53;36.43;100846.37;1716403;83;21509;-78
2022/09/22 01:55:34;;;;;;;3.05;1.75;;;;;;;22.51;36.44;100838.94;1716502;83;22286;-78
2022/09/22 01:58:05;;;;;;;2.83;1.52;;;;;;;22.54;36.45;100847.41;1716287;82;21848;-78
2022/09/22 02:00:33;;;;;;;2.60;1.50;;;;;;;22.54;36.45;100847.41;1707395;83;21047;-78
2022/09/22 02:03:16;;;;;;;4.10;1.60;;;;;;;22.54;36.45;100850.74;1681201;83;20985;-79
2022/09/22 02:05:48;;;;;;;2.95;1.70;;;;;;;22.54;36.48;100852.95;1656882;84;21107;-78
2022/09/22 02:08:19;;;;;;;4.05;1.67;;;;;;;22.55;36.48;100852.38;1674435;85;21335;-78
2022/09/22 02:10:46;;;;;;;1.92;1.47;;;;;;;22.54;36.47;100849.36;1688516;83;21886;-78
2022/09/22 02:13:13;;;;;;;2.77;1.55;;;;;;;22.54;36.48;100852.95;1682149;84;21076;-78
2022/09/22 02:18:28;;;;;;;5.17;1.75;;;;;;;22.54;36.49;100850.17;1713263;83;21072;-78
2022/09/22 02:20:55;;;;;;;2.92;1.72;;;;;;;22.54;36.46;100848.80;1715267;82;21097;-78
2022/09/22 02:23:21;;;;;;;2.30;1.40;;;;;;;22.54;36.49;100852.95;1681091;84;21675;-79
2022/09/22 02:25:48;;;;;;;2.40;1.40;;;;;;;22.53;36.49;100851.31;1693506;84;22226;-79
2022/09/22 02:28:17;;;;;;;4.50;1.80;;;;;;;22.54;36.49;100848.80;1674033;84;21077;-78
2022/09/22 02:30:45;;;;;;;2.87;1.67;;;;;;;22.55;36.50;100849.61;1670833;84;21057;-78
2022/09/22 02:33:12;;;;;;;2.85;1.65;;;;;;;22.54;36.51;100850.17;1693223;84;21571;-78
2022/09/22 02:35:39;;;;;;;2.95;1.70;;;;;;;22.54;36.51;100850.17;1693616;84;21262;-79
2022/09/22 02:38:13;;;;;;;2.27;1.50;;;;;;;22.55;36.52;100850.99;1673898;84;21148;-78
2022/09/22 02:41:09;;;;;;;2.90;1.60;;;;;;;22.55;36.54;100846.84;1694256;84;21037;-79
2022/09/22 02:43:47;;;;;;;1.80;1.42;;;;;;;22.55;36.54;100851.81;1693814;83;21128;-79
2022/09/22 02:46:26;;;;;;;4.83;2.00;;;;;;;22.53;36.53;100842.99;1693760;84;21041;-79
2022/09/22 02:48:57;;;;;;;4.37;1.67;;;;;;;22.54;36.51;100846.59;1684254;83;21134;-78
2022/09/22 02:51:23;;;;;;;;;;;;;;;22.54;36.52;100849.36;1668005;84;20988;-78
2022/09/22 02:53:50;;;;;;;2.50;1.60;;;;;;;22.52;36.56;100855.25;1665886;85;20473;-79
2022/09/22 02:56:16;;;;;;;3.15;1.77;;;;;;;22.51;36.53;100855.00;1637035;86;21650;-78
2022/09/22 02:58:42;;;;;;;3.22;1.50;;;;;;;22.51;36.56;100852.23;1665145;85;21086;-78
2022/09/22 03:01:09;;;;;;;3.20;1.87;;;;;;;22.51;36.57;100861.94;1652835;84;21277;-78
2022/09/22 03:03:35;;;;;;;2.83;1.75;;;;;;;22.52;36.57;100862.75;1633331;86;21603;-78
2022/09/22 03:06:03;;;;;;;2.30;1.47;;;;;;;22.52;36.57;100866.34;1689644;84;21123;-78
2022/09/22 03:08:29;;;;;;;2.20;1.60;;;;;;;22.53;36.59;100868.55;1690017;83;21055;-79
2022/09/22 03:10:56;;;;;;;2.22;1.45;;;;;;;22.52;36.58;100859.41;1689689;83;21138;-79
2022/09/22 03:13:22;;;;;;;2.62;1.70;;;;;;;22.52;36.60;100866.34;1689479;84;21130;-78
2022/09/22 03:15:48;;;;;;;3.62;1.72;;;;;;;22.51;36.60;100870.25;1689805;84;21566;-79
2022/09/22 03:18:14;;;;;;;6.20;1.90;;;;;;;22.52;36.62;100874.66;1689785;84;21075;-78
2022/09/22 03:20:41;;;;;;;2.65;1.65;;;;;;;22.52;36.64;100872.45;1690107;84;21053;-79
2022/09/22 03:23:07;;;;;;;2.50;1.75;;;;;;;22.52;36.65;100870.50;1688008;83;21096;-78
2022/09/22 03:25:34;;;;;;;3.60;1.70;;;;;;;22.51;36.64;100870.25;1692389;83;21184;-78
2022/09/22 03:28:00;;;;;;;1.87;1.17;;;;;;;22.51;36.65;100863.32;1693893;83;21059;-78
2022/09/22 03:30:27;;;;;;;4.60;1.75;;;;;;;22.52;36.64;100871.07;1694354;83;21558;-78
2022/09/22 03:32:53;;;;;;;3.00;1.77;;;;;;;22.51;36.66;100870.82;1694253;84;21055;-78
2022/09/22 03:35:19;;;;;;;2.90;2.00;;;;;;;22.51;36.67;100870.25;1691149;83;21634;-79
2022/09/22 03:37:45;;;;;;;4.20;1.82;;;;;;;22.50;36.68;100870.00;1683400;83;21109;-79
2022/09/22 03:40:12;;;;;;;3.00;1.82;;;;;;;22.51;36.68;100875.80;1710402;83;21044;-79
2022/09/22 03:42:38;;;;;;;2.77;1.60;;;;;;;22.51;36.70;100870.82;1673850;83;21091;-79
2022/09/22 03:45:05;;;;;;;1.75;1.32;;;;;;;22.50;36.67;100874.16;1710293;83;21578;-79
2022/09/22 03:47:31;;;;;;;2.50;1.72;;;;;;;22.51;36.70;100875.80;1710349;83;21024;-79
2022/09/22 03:49:58;;;;;;;2.40;1.67;;;;;;;22.51;36.72;100880.52;1710181;83;21074;-78
2022/09/22 03:52:24;;;;;;;4.42;1.60;;;;;;;22.50;36.68;100879.70;1710320;83;21076;-78
2022/09/22 03:54:51;;;;;;;4.15;1.90;;;;;;;22.48;36.56;100883.39;1709756;83;21523;-79
2022/09/22 03:57:17;;;;;;;5.22;2.02;;;;;;;22.47;36.58;100878.17;1709745;83;21045;-79
2022/09/22 03:59:43;;;;;;;4.70;2.00;;;;;;;22.47;36.55;100886.48;1710069;83;21037;-78
2022/09/22 04:02:10;;;;;;;4.47;2.00;;;;;;;22.46;36.50;100880.13;1647371;85;21559;-77
2022/09/22 04:04:36;;;;;;;6.37;2.65;;;;;;;22.46;36.48;100879.30;1678361;84;21109;-78
2022/09/22 04:07:02;;;;;;;6.03;2.30;;;;;;;22.46;36.40;100883.46;1637728;86;21127;-78
2022/09/22 04:09:29;;;;;;;6.75;2.42;;;;;;;22.45;36.34;100883.24;1682089;85;21024;-78
2022/09/22 04:11:55;;;;;;;5.15;2.67;;;;;;;22.43;36.36;100884.13;1662570;84;21150;-78
2022/09/22 04:14:21;;;;;;;7.00;2.80;;;;;;;22.39;36.31;100872.88;1693652;84;21228;-78
2022/09/22 04:16:54;;;;;;;6.83;2.90;;;;;;;22.28;36.22;100875.73;1672517;84;22219;-79
2022/09/22 04:19:21;;;;;;;8.48;3.45;;;;;;;22.22;36.28;100875.67;1693620;84;21153;-77
2022/09/22 04:21:48;;;;;;;6.62;3.02;;;;;;;22.19;36.22;100880.48;1693532;84;21084;-78
2022/09/22 04:24:15;;;;;;;8.38;3.12;;;;;;;22.15;36.23;100875.36;1693331;83;21080;-78
2022/09/22 04:26:42;;;;;;;5.90;2.70;;;;;;;22.16;36.22;100877.78;1693314;84;21852;-78
2022/09/22 04:29:08;;;;;;;11.30;3.00;;;;;;;22.19;36.18;100874.95;1693499;84;21083;-78
2022/09/22 04:31:34;;;;;;;6.97;2.42;;;;;;;22.20;36.09;100876.55;1713836;82;22222;-77
2022/09/22 04:34:01;;;;;;;7.30;2.77;;;;;;;22.20;36.10;100880.14;1721523;82;21116;-78
2022/09/22 04:36:27;;;;;;;6.45;2.77;;;;;;;22.21;36.12;100880.95;1673985;84;21059;-77
2022/09/22 04:38:54;;;;;;;9.35;3.25;;;;;;;22.21;36.08;100878.19;1699654;83;21233;-76
2022/09/22 04:41:20;;;;;;;9.35;3.30;;;;;;;22.21;36.05;100877.63;1700089;83;21060;-76
2022/09/22 04:43:46;;;;;;;16.87;3.35;;;;;;;22.19;35.98;100877.72;1700243;84;21598;-80
2022/09/22 04:46:13;;;;;;;14.58;3.60;;;;;;;22.15;35.95;100870.60;1705867;82;21075;-78
2022/09/22 04:48:39;;;;;;;9.48;3.27;;;;;;;22.09;35.95;100878.85;1701940;82;21167;-78
2022/09/22 04:51:06;;;;;;;15.72;4.75;;;;;;;22.07;35.99;100876.14;1700664;82;21285;-81
2022/09/22 04:53:32;;;;;;;19.65;4.33;;;;;;;22.02;36.02;100879.10;1698522;82;21027;-81
2022/09/22 04:55:59;;;;;;;18.60;3.92;;;;;;;21.96;36.11;100875.66;1693323;83;21345;-77
2022/09/22 04:58:25;;;;;;;22.80;3.90;;;;;;;21.97;36.24;100877.30;1692232;83;21170;-78
2022/09/22 05:00:54;;;;;;;16.82;4.15;;;;;;;21.95;36.26;100877.36;1689414;83;21111;-82
2022/09/22 05:03:20;;;;;;;19.92;3.95;;;;;;;21.94;36.39;100873.77;1692302;82;23514;-78
2022/09/22 05:05:49;;;;;;;21.23;3.90;;;;;;;21.97;36.50;100880.64;1690635;83;21071;-80
2022/09/22 05:08:16;;;;;;;14.10;3.67;;;;;;;21.98;36.44;100878.91;1692329;83;21373;-79
2022/09/22 05:10:44;;;;;;;21.30;4.15;;;;;;;21.96;36.42;100874.28;1691961;83;21020;-81
2022/09/22 05:13:11;;;;;;;21.62;4.70;;;;;;;21.97;36.42;100874.53;1693617;82;21712;-80
2022/09/22 05:15:37;;;;;;;18.45;3.95;;;;;;;21.99;36.41;100877.78;1670324;84;21642;-80
2022/09/22 05:18:09;;;;;;;21.20;4.87;;;;;;;21.98;36.29;100879.51;1713503;81;21154;-82
2022/09/22 05:20:36;;;;;;;25.65;4.22;;;;;;;21.97;36.32;100887.00;1715569;82;21138;-82
2022/09/22 05:23:03;;;;;;;19.62;10.38;;;;;;;21.93;36.31;100879.66;1710957;82;21469;-80
2022/09/22 05:25:29;;;;;;;15.55;8.93;;;;;;;21.96;36.33;100888.13;1716757;81;21092;-84
2022/09/22 05:27:56;;;;;;;15.98;5.10;;;;;;;21.99;36.29;100875.58;1681526;81;21127;-84
2022/09/22 05:30:24;;;;;;;17.98;5.92;;;;;;;22.00;36.20;100884.14;1715993;81;20982;-81
2022/09/22 05:32:50;;;;;;;17.07;5.70;;;;;;;21.97;36.22;100882.02;1699789;82;21118;-80
2022/09/22 05:35:20;;;;;;;9.68;4.92;;;;;;;21.98;36.21;100878.13;1695529;83;21076;-85
2022/09/22 05:37:48;;;;;;;20.10;6.62;;;;;;;22.00;36.15;100872.48;1708748;82;21072;-83
2022/09/22 05:40:15;;;;;;;18.50;6.53;;;;;;;22.01;36.15;100880.23;1715787;82;21084;-80
2022/09/22 05:42:56;;;;;;;15.23;6.62;;;;;;;22.02;36.12;100878.53;1694227;82;21103;-83
2022/09/22 05:45:18;;;;;;;14.58;6.97;;;;;;;22.05;36.11;100888.14;1696075;82;21212;-80
2022/09/22 05:47:45;;;;;;;20.40;5.50;;;;;;;22.07;36.11;100885.84;1716956;81;21058;-79
2022/09/22 05:50:12;;;;;;;37.45;5.45;;;;;;;22.08;36.21;100886.09;1700182;82;21610;-85
2022/09/22 05:52:39;;;;;;;23.85;5.75;;;;;;;22.05;36.38;100887.57;1729268;81;22099;-79
2022/09/22 05:55:08;;;;;;;28.60;5.97;;;;;;;22.06;36.83;100898.09;1723859;81;21035;-82
2022/09/22 05:57:35;;;;;;;27.87;5.55;;;;;;;22.07;37.08;100890.81;1723547;81;21051;-81
2022/09/22 06:00:03;;;;;;;46.90;6.42;;;;;;;22.11;37.44;100890.41;1720413;81;21181;-79
2022/09/22 06:02:30;;;;;;;36.68;6.90;;;;;;;22.13;37.75;100894.25;1688461;82;21086;-80
2022/09/22 06:04:56;;;;;;;23.32;6.70;;;;;;;22.16;37.94;100888.05;1661492;84;21096;-82
2022/09/22 06:07:26;;;;;;;36.77;7.15;;;;;;;22.18;38.08;100889.37;1660175;84;21621;-80
2022/09/22 06:09:53;;;;;;;27.93;6.17;;;;;;;22.19;38.08;100895.73;1723953;81;21685;-80
2022/09/22 06:12:19;;;;;;;24.77;5.12;;;;;;;22.20;38.09;100891.80;1719268;81;21043;-79
2022/09/22 06:14:45;;;;;;;28.87;5.78;;;;;;;22.21;37.95;100893.44;1722828;81;21544;-88
2022/09/22 06:17:12;;;;;;;26.20;5.15;;;;;;;22.21;38.02;100899.80;1665907;82;21617;-83
2022/09/22 06:19:39;;;;;;;21.23;5.55;;;;;;;22.22;37.93;100900.61;1723443;81;21122;-84
2022/09/22 06:22:05;;;;;;;24.70;4.85;;;;;;;22.21;37.93;100894.25;1727232;81;21779;-81
2022/09/22 06:24:31;;;;;;;25.40;5.78;;;;;;;22.22;37.89;100890.91;1678151;82;21772;-84
2022/09/22 06:27:00;;;;;;;21.62;6.05;;;;;;;22.21;37.88;100887.32;1674064;83;21131;-84
2022/09/22 06:29:27;;;;;;;27.82;7.58;;;;;;;22.22;37.88;100886.75;1684239;83;21265;-81
2022/09/22 06:31:54;;;;;;;19.17;5.85;;;;;;;22.21;37.94;100885.94;1678036;84;37822;-79
2022/09/22 06:34:22;;;;;;;15.93;4.62;;;;;;;22.23;37.93;100881.46;1675561;83;21079;-81
2022/09/22 06:36:49;;;;;;;20.10;5.28;;;;;;;22.23;37.93;100882.85;1677162;83;21097;-87
2022/09/22 06:39:15;;;;;;;14.93;6.62;;;;;;;22.24;37.94;100884.45;1677653;83;21407;-84
2022/09/22 06:41:43;;;;;;;24.63;6.25;;;;;;;22.25;37.93;100890.25;1695337;83;22038;-79
2022/09/22 06:44:11;;;;;;;14.53;5.35;;;;;;;22.26;37.95;100899.63;1674978;83;21194;-82
2022/09/22 06:46:44;;;;;;;15.18;6.67;;;;;;;22.26;37.92;100894.09;1648878;85;21645;-84
2022/09/22 06:49:09;;;;;;;31.95;6.78;;;;;;;22.27;37.93;100906.00;1660106;84;21127;-82
2022/09/22 06:51:37;;;;;;;48.38;6.95;;;;;;;22.25;38.16;100902.72;1680405;83;21092;-81
2022/09/22 06:54:04;;;;;;;33.33;5.72;;;;;;;22.22;38.39;100902.00;1668358;83;21445;-82
2022/09/22 06:56:36;;;;;;;53.33;6.22;;;;;;;22.20;38.43;100904.27;1672771;83;21630;-83
2022/09/22 06:59:13;;;;;;;42.25;6.30;;;;;;;22.20;38.90;100901.49;1644824;84;21560;-78
2022/09/22 07:01:40;;;;;;;48.38;6.78;;;;;;;22.22;39.25;100902.00;1656618;84;21041;-84
2022/09/22 07:04:06;;;;;;;36.25;5.90;;;;;;;22.22;39.61;100906.16;1717650;82;21134;-81
2022/09/22 07:06:39;;;;;;;47.10;7.62;;;;;;;22.23;39.71;100903.64;1685645;82;21125;-84
2022/09/22 07:09:06;;;;;;;33.33;5.47;;;;;;;22.23;39.82;100908.61;1676680;84;21537;-79
2022/09/22 07:11:33;;;;;;;32.40;7.17;;;;;;;22.24;39.62;100904.67;1645822;85;21097;-85
2022/09/22 07:14:00;;;;;;;21.97;6.30;;;;;;;22.24;39.52;100907.45;1658277;84;21181;-86
2022/09/22 07:16:26;;;;;;;28.25;6.28;;;;;;;22.25;39.44;100905.49;1648472;84;21165;-86
2022/09/22 07:19:00;;;;;;;24.07;7.47;;;;;;;22.25;39.33;100904.11;1650009;85;21101;-86
2022/09/22 07:21:30;;;;;;;26.07;6.50;;;;;;;22.26;39.33;100906.56;1672095;83;22956;-85
2022/09/22 07:23:56;;;;;;;25.65;5.85;;;;;;;22.27;39.27;100907.38;1684381;82;21043;-87
2022/09/22 07:26:27;;;;;;;29.92;5.95;;;;;;;22.28;39.23;100906.22;1707946;82;20984;-85
2022/09/22 07:28:55;;;;;;;27.60;6.08;;;;;;;22.29;39.18;100905.91;1700730;82;21079;-86
2022/09/22 07:31:22;;;;;;;17.50;5.47;;;;;;;22.32;39.10;100912.73;1698813;81;21160;-86
2022/09/22 07:33:54;;;;;;;17.77;5.25;;;;;;;22.34;39.12;100904.92;1707926;82;21086;-83
2022/09/22 07:36:24;;;;;;;22.30;6.00;;;;;;;22.35;38.99;100908.52;1687512;83;21074;-86
2022/09/22 07:38:52;;;;;;;16.03;6.57;;;;;;;22.35;39.00;100909.91;1674399;83;21575;-86
2022/09/22 07:41:21;;;;;;;15.72;7.17;;;;;;;22.35;39.00;100906.56;1686018;83;21100;-83
2022/09/22 07:43:55;;;;;;;22.25;5.17;;;;;;;22.36;39.06;100909.59;1699578;82;22243;-80
2022/09/22 07:46:22;;;;;;;14.45;5.42;;;;;;;22.36;38.99;100904.04;1695792;82;21083;-83
2022/09/22 07:48:50;;;;;;;27.20;6.58;;;;;;;22.35;38.92;100904.36;1713654;81;21092;-87
2022/09/22 07:51:20;;;;;;;26.95;6.70;;;;;;;22.31;39.15;100906.97;1715044;81;21079;-91
2022/09/22 07:54:01;;;;;;;32.20;5.90;;;;;;;22.29;39.33;100910.63;1663619;84;21150;-84
2022/09/22 07:56:26;;;;;;;28.67;5.92;;;;;;;22.28;39.76;100902.88;1715194;81;21155;-87
2022/09/22 07:58:52;;;;;;;45.50;7.08;;;;;;;22.29;39.96;100909.23;1711312;82;21107;-84
2022/09/22 08:01:25;;;;;;;35.58;6.25;;;;;;;22.29;40.31;100905.91;1715208;82;21181;-84
2022/09/22 08:03:51;;;;;;;38.17;6.30;;;;;;;;;;1711198;81;21306;-81
2022/09/22 08:06:18;;;;;;;41.48;8.28;;;;;;;;;;1714694;81;21067;-77
2022/09/22 08:08:51;;;;;;;35.33;7.20;;;;;;;22.28;40.60;100897.34;1708247;82;22314;-82
2022/09/22 08:11:16;;;;;;;31.23;5.85;;;;;;;22.31;40.70;100904.20;1695099;82;21119;-81
2022/09/22 08:13:56;;;;;;;27.35;6.45;;;;;;;22.34;40.74;100904.92;1694507;82;21065;-77
2022/09/22 08:16:24;;;;;;;29.32;6.30;;;;;;;22.34;40.56;100906.31;1705605;82;21236;-79
2022/09/22 08:18:54;;;;;;;23.07;5.30;;;;;;;22.36;40.48;100899.88;1715246;82;21049;-80
2022/09/22 08:21:34;;;;;;;26.42;6.35;;;;;;;22.37;40.41;100906.22;1716950;81;20979;-80
2022/09/22 08:24:02;;;;;;;39.38;7.03;;;;;;;22.37;40.39;100904.27;1707257;83;21035;-81
2022/09/22 08:26:28;;;;;;;24.82;9.75;;;;;;;22.37;40.29;100899.28;1705658;81;21048;-80
2022/09/22 08:28:55;;;;;;;22.75;5.42;;;;;;;22.36;40.16;100897.11;1679004;81;21653;-81
2022/09/22 08:31:23;;;;;;;20.12;7.08;;;;;;;22.36;39.96;100892.95;1634939;84;21106;-79
2022/09/22 08:33:54;;;;;;;17.05;6.85;;;;;;;22.36;39.85;100892.95;1703958;82;21966;-81
2022/09/22 08:36:18;;;;;;;16.52;5.20;;;;;;;22.36;39.82;100890.75;1678733;82;21150;-78
2022/09/22 08:38:48;;;;;;;24.23;6.03;;;;;;;22.36;39.75;100886.02;1686995;81;21613;-85
2022/09/22 08:41:25;;;;;;;33.10;5.92;;;;;;;22.34;39.94;100881.36;1706871;81;21107;-77
2022/09/22 08:44:11;;;;;;;35.03;6.50;;;;;;;22.36;40.57;100875.50;1705460;82;21185;-75
2022/09/22 08:46:42;;;;;;;36.42;6.75;;;;;;;22.37;40.89;100876.54;1647309;83;21250;-76
2022/09/22 08:52:31;;;;;;;23.47;4.00;;;;;;;22.34;41.33;100867.50;1684135;83;21080;-77
2022/09/22 08:54:58;;;;;;;11.45;3.47;;;;;;;22.30;41.11;100865.96;1683181;83;21465;-76
2022/09/22 08:57:43;;;;;;;11.35;3.72;;;;;;;22.25;40.62;100871.67;1639188;84;21147;-76
2022/09/22 09:00:14;;;;;;;16.10;3.10;;;;;;;22.22;40.33;100872.33;1667893;83;22421;-76
2022/09/22 09:03:06;;;;;;;13.08;2.85;;;;;;;22.20;40.00;100873.78;1659606;83;21768;-76
2022/09/22 09:06:03;;;;;;;7.87;2.45;;;;;;;22.18;39.64;100871.92;1675264;83;21724;-76
2022/09/22 09:08:56;;;;;;;7.50;2.00;;;;;;;22.16;39.36;100870.03;1682389;83;21049;-77
2022/09/22 09:11:34;;;;;;;9.48;2.60;;;;;;;22.13;39.00;100863.77;1674658;84;21075;-75
2022/09/22 09:14:45;;;;;;;7.80;2.30;;;;;;;22.11;38.70;100864.66;1649449;84;21235;-75
2022/09/22 09:17:30;;;;;;;7.05;2.17;;;;;;;22.10;38.50;100866.64;1674648;84;21123;-75
2022/09/22 09:20:16;;;;;;;5.25;2.25;;;;;;;22.08;38.29;100863.36;1661225;84;21113;-75
2022/09/22 09:22:54;;;;;;;5.87;2.05;;;;;;;22.08;37.99;100864.74;1660330;84;21918;-76
2022/09/22 09:25:39;;;;;;;7.45;2.10;;;;;;;22.07;37.75;100864.49;1677165;83;21178;-76
2022/09/22 09:28:12;;;;;;;7.92;1.42;;;;;;;22.06;37.60;100869.81;1671643;85;21922;-77
2022/09/22 09:30:50;;;;;;;7.15;2.30;;;;;;;22.08;37.42;100860.59;1672679;83;21190;-75
2022/09/22 09:33:34;;;;;;;5.33;1.82;;;;;;;22.07;37.29;100856.75;1668862;84;21109;-77
2022/09/22 09:36:01;;;;;;;3.40;1.50;;;;;;;22.06;37.11;100853.76;1682567;83;21197;-76
2022/09/22 09:38:30;;;;;;;2.85;1.47;;;;;;;22.05;36.95;100856.27;1668858;84;21140;-76
2022/09/22 09:41:25;;;;;;;6.67;2.00;;;;;;;22.05;36.83;100850.73;1698701;83;21945;-76
2022/09/22 09:43:53;;;;;;;6.42;2.00;;;;;;;22.06;36.79;100851.80;1710764;82;21441;-77
2022/09/22 09:46:48;;;;;;;8.85;1.67;;;;;;;22.07;36.74;100853.98;1724767;81;21094;-77
2022/09/22 09:49:16;;;;;;;12.07;1.62;;;;;;;22.06;36.72;100854.58;1706149;81;21113;-79
2022/09/22 09:51:53;;;;;;;7.92;1.80;;;;;;;22.05;36.64;100849.34;1708693;81;21666;-77
2022/09/22 09:54:20;;;;;;;6.15;1.95;;;;;;;22.06;36.54;100853.76;1718061;81;21787;-77
2022/09/22 09:57:10;;;;;;;13.75;2.58;;;;;;;22.06;36.57;100853.19;1718299;81;21037;-78
2022/09/22 10:02:49;;;;;;;19.27;2.62;;;;;;;22.06;36.67;100852.38;1718288;81;21087;-78
2022/09/22 10:05:20;;;;;;;7.90;2.15;;;;;;;22.06;36.60;100850.98;1722322;81;21052;-77
2022/09/22 10:08:18;;;;;;;8.38;2.02;;;;;;;22.03;36.49;100855.20;1664460;84;21085;-78
2022/09/22 10:10:45;;;;;;;11.60;1.98;;;;;;;22.03;36.62;100844.69;1626518;86;21141;-78
2022/09/22 10:13:17;;;;;;;8.75;3.52;;;;;;;22.06;36.73;100852.38;1696218;81;21020;-78
2022/09/22 10:15:43;;;;;;;12.75;2.35;;;;;;;22.08;36.85;100843.15;1724272;81;21142;-79
2022/09/22 10:18:35;;;;;;;15.08;2.47;;;;;;;22.11;36.98;100843.30;1673164;82;21055;-81
2022/09/22 10:21:21;;;;;;;11.75;3.33;;;;;;;22.14;37.07;100839.08;1718722;81;21418;-79
2022/09/22 10:23:51;;;;;;;14.98;4.00;;;;;;;22.16;37.09;100837.60;1702076;82;21137;-78
2022/09/22 10:26:29;;;;;;;9.40;3.33;;;;;;;22.18;37.10;100834.52;1675740;83;21453;-78
2022/09/22 10:29:18;;;;;;;10.72;2.77;;;;;;;22.19;37.09;100828.62;1682414;85;21378;-78
2022/09/22 10:32:14;;;;;;;10.20;3.25;;;;;;;22.20;37.11;100828.05;1678492;85;20977;-78
2022/09/22 10:34:49;;;;;;;6.17;2.30;;;;;;;22.20;37.09;100823.33;1659971;84;21181;-78
2022/09/22 10:37:20;;;;;;;5.17;2.52;;;;;;;22.23;37.08;100826.03;1668817;85;21099;-79
2022/09/22 10:39:53;;;;;;;5.78;2.20;;;;;;;22.23;37.04;100824.08;1673077;85;21087;-78
2022/09/22 10:42:39;;;;;;;7.70;2.20;;;;;;;22.24;36.97;100810.45;1649750;84;21329;-78
2022/09/22 10:45:13;;;;;;;4.42;1.72;;;;;;;22.25;36.98;100820.39;1674675;83;21155;-78
2022/09/22 10:48:10;;;;;;;7.87;2.08;;;;;;;22.26;37.00;100812.90;1680453;83;21668;-77
2022/09/22 10:50:56;;;;;;;5.58;1.75;;;;;;;22.29;36.93;100809.46;1674045;84;21106;-78
2022/09/22 10:53:52;;;;;;;8.50;1.90;;;;;;;22.29;36.84;100808.89;1674396;84;21100;-77
2022/09/22 10:56:30;;;;;;;11.08;1.55;;;;;;;22.29;36.94;100810.28;1654320;84;21629;-78
2022/09/22 10:59:11;;;;;;;6.30;1.65;;;;;;;22.31;36.92;100818.28;1658976;84;21655;-77
2022/09/22 11:02:17;;;;;;;12.43;1.72;;;;;;;22.32;36.80;100812.95;1647840;85;21183;-77
2022/09/22 11:04:58;;;;;;;14.68;2.30;;;;;;;22.29;36.80;100817.20;1620564;86;21072;-77
2022/09/22 11:14:14;;;;;;;17.30;3.45;;;;;;;22.25;36.70;100805.72;1667998;84;21590;-79
2022/09/22 11:16:49;;;;;;;9.03;3.05;;;;;;;22.24;36.66;100811.02;1661978;86;21698;-78
2022/09/22 11:19:45;;;;;;;7.55;2.42;;;;;;;22.24;36.53;100807.67;1581106;87;21158;-79
2022/09/22 11:22:38;;;;;;;6.80;2.20;;;;;;;22.23;36.43;100803.30;1626110;86;21114;-78
2022/09/22 11:25:33;;;;;;;6.58;4.17;;;;;;;22.24;36.33;100798.55;1659076;83;21288;-78
2022/09/22 11:28:22;;;;;;;6.95;2.75;;;;;;;22.24;36.27;100799.92;1675872;83;22239;-78
2022/09/22 11:30:50;;;;;;;11.80;2.25;;;;;;;22.25;36.18;100794.63;1641861;86;21124;-78
2022/09/22 11:33:41;;;;;;;3.85;1.57;;;;;;;22.25;35.97;100789.09;1675823;82;21051;-79
2022/09/22 11:36:31;;;;;;;4.95;1.62;;;;;;;22.25;35.77;100786.32;1672404;85;22126;-78
2022/09/22 11:39:24;;;;;;;4.90;1.42;;;;;;;22.25;35.68;100794.63;1667093;83;21187;-77
2022/09/22 11:42:08;;;;;;;4.35;1.50;;;;;;;22.24;35.62;100786.89;1673359;85;21084;-80
2022/09/22 11:44:40;;;;;;;4.67;1.27;;;;;;;22.24;35.39;100784.69;1689995;83;21063;-79
2022/09/22 11:47:43;;;;;;;6.85;1.57;;;;;;;22.23;35.29;100780.31;1678051;83;21597;-79
2022/09/22 11:50:45;;;;;;;12.15;1.90;;;;;;;22.24;35.26;100776.37;1687251;83;21122;-80
2022/09/22 11:53:38;;;;;;;11.88;1.70;;;;;;;22.24;35.30;100781.91;1659383;85;21009;-79
2022/09/22 11:56:38;;;;;;;9.78;1.65;;;;;;;22.24;35.50;100774.98;1697958;83;21860;-79
2022/09/22 11:59:32;;;;;;;10.65;2.30;;;;;;;22.25;35.88;100770.51;1680678;84;21520;-80
2022/09/22 12:02:03;;;;;;;12.63;1.77;;;;;;;22.31;36.19;100772.55;1643667;86;21665;-80
2022/09/22 12:04:42;;;;;;;12.23;1.92;;;;;;;22.34;36.42;100770.48;1679339;82;21141;-80
2022/09/22 12:07:23;;;;;;;10.50;2.02;;;;;;;22.36;36.60;100772.37;1671561;84;21110;-80